sensor_id;sensor_type;location;lat;lon;timestamp;pressure;altitude;pressure_sealevel;temperature;humidity
68380;BME280;57711;53.196;19.638;2023-03-24T00:00:26;99359.23;;;10.79;67.57
68380;BME280;57711;53.196;19.638;2023-03-24T00:03:14;99351.35;;;10.74;67.65
68380;BME280;57711;53.196;19.638;2023-03-24T00:05:43;99357.84;;;10.71;67.78
68380;BME280;57711;53.196;19.638;2023-03-24T00:08:11;99351.83;;;10.70;67.65
68380;BME280;57711;53.196;19.638;2023-03-24T00:10:38;99350.64;;;10.69;67.78
68380;BME280;57711;53.196;19.638;2023-03-24T00:13:06;99351.73;;;10.69;67.49
68380;BME280;57711;53.196;19.638;2023-03-24T00:15:33;99356.95;;;10.69;67.52
68380;BME280;57711;53.196;19.638;2023-03-24T00:18:02;99359.89;;;10.67;67.49
68380;BME280;57711;53.196;19.638;2023-03-24T00:20:30;99354.27;;;10.66;67.53
68380;BME280;57711;53.196;19.638;2023-03-24T00:22:58;99354.06;;;10.64;67.58
68380;BME280;57711;53.196;19.638;2023-03-24T00:25:30;99361.04;;;10.62;67.75
68380;BME280;57711;53.196;19.638;2023-03-24T00:28:02;99357.33;;;10.55;67.51
68380;BME280;57711;53.196;19.638;2023-03-24T00:30:33;99343.31;;;10.51;67.71
68380;BME280;57711;53.196;19.638;2023-03-24T00:33:01;99337.73;;;10.47;67.87
68380;BME280;57711;53.196;19.638;2023-03-24T00:35:30;99343.67;;;10.44;67.65
68380;BME280;57711;53.196;19.638;2023-03-24T00:37:57;99340.44;;;10.42;67.58
68380;BME280;57711;53.196;19.638;2023-03-24T00:40:24;99340.92;;;10.41;67.50
68380;BME280;57711;53.196;19.638;2023-03-24T00:42:54;99343.27;;;10.39;67.72
68380;BME280;57711;53.196;19.638;2023-03-24T00:45:21;99340.64;;;10.40;67.74
68380;BME280;57711;53.196;19.638;2023-03-24T00:47:51;99339.61;;;10.41;67.55
68380;BME280;57711;53.196;19.638;2023-03-24T00:50:24;99332.89;;;10.42;67.88
68380;BME280;57711;53.196;19.638;2023-03-24T00:52:54;99323.48;;;10.40;67.87
68380;BME280;57711;53.196;19.638;2023-03-24T00:55:22;99322.52;;;10.37;67.73
68380;BME280;57711;53.196;19.638;2023-03-24T00:57:49;99320.73;;;10.33;67.92
68380;BME280;57711;53.196;19.638;2023-03-24T01:00:20;99323.88;;;10.29;67.87
68380;BME280;57711;53.196;19.638;2023-03-24T01:02:49;99321.30;;;10.24;67.98
68380;BME280;57711;53.196;19.638;2023-03-24T01:05:23;99323.49;;;10.24;67.81
68380;BME280;57711;53.196;19.638;2023-03-24T01:07:50;99326.94;;;10.24;67.92
68380;BME280;57711;53.196;19.638;2023-03-24T01:10:23;99321.00;;;10.24;67.66
68380;BME280;57711;53.196;19.638;2023-03-24T01:12:57;99309.88;;;10.23;67.83
68380;BME280;57711;53.196;19.638;2023-03-24T01:15:29;99297.91;;;10.23;67.81
68380;BME280;57711;53.196;19.638;2023-03-24T01:17:56;99300.55;;;10.22;67.91
68380;BME280;57711;53.196;19.638;2023-03-24T01:20:24;99299.90;;;10.20;67.65
68380;BME280;57711;53.196;19.638;2023-03-24T01:22:51;99297.94;;;10.16;67.70
68380;BME280;57711;53.196;19.638;2023-03-24T01:25:20;99292.90;;;10.14;67.91
68380;BME280;57711;53.196;19.638;2023-03-24T01:27:49;99292.31;;;10.11;67.79
68380;BME280;57711;53.196;19.638;2023-03-24T01:30:20;99288.58;;;10.08;68.12
68380;BME280;57711;53.196;19.638;2023-03-24T01:32:48;99290.40;;;10.05;67.93
68380;BME280;57711;53.196;19.638;2023-03-24T01:35:15;99292.73;;;10.03;67.92
68380;BME280;57711;53.196;19.638;2023-03-24T01:37:42;99287.66;;;10.03;67.93
68380;BME280;57711;53.196;19.638;2023-03-24T01:40:16;99287.45;;;10.04;68.00
68380;BME280;57711;53.196;19.638;2023-03-24T01:42:43;99282.30;;;10.04;67.88
68380;BME280;57711;53.196;19.638;2023-03-24T01:48:19;99278.39;;;10.09;67.99
68380;BME280;57711;53.196;19.638;2023-03-24T01:50:52;99283.22;;;10.09;67.78
68380;BME280;57711;53.196;19.638;2023-03-24T01:53:20;99275.80;;;10.08;67.89
68380;BME280;57711;53.196;19.638;2023-03-24T01:55:49;99274.92;;;10.04;67.91
68380;BME280;57711;53.196;19.638;2023-03-24T01:58:22;99277.36;;;10.00;67.81
68380;BME280;57711;53.196;19.638;2023-03-24T02:01:04;99284.23;;;9.94;67.80
68380;BME280;57711;53.196;19.638;2023-03-24T02:03:44;99281.61;;;9.90;67.81
68380;BME280;57711;53.196;19.638;2023-03-24T02:06:13;99280.65;;;9.87;68.03
68380;BME280;57711;53.196;19.638;2023-03-24T02:08:51;99285.05;;;9.83;67.86
68380;BME280;57711;53.196;19.638;2023-03-24T02:11:20;99287.15;;;9.80;67.98
68380;BME280;57711;53.196;19.638;2023-03-24T02:13:52;99291.27;;;9.77;67.97
68380;BME280;57711;53.196;19.638;2023-03-24T02:16:23;99288.66;;;9.74;67.92
68380;BME280;57711;53.196;19.638;2023-03-24T02:21:56;99280.23;;;9.68;67.96
68380;BME280;57711;53.196;19.638;2023-03-24T02:27:45;99282.10;;;9.63;68.13
68380;BME280;57711;53.196;19.638;2023-03-24T02:30:42;99277.59;;;9.62;67.98
68380;BME280;57711;53.196;19.638;2023-03-24T02:44:55;99264.20;;;9.57;68.16
68380;BME280;57711;53.196;19.638;2023-03-24T02:50:15;99266.36;;;9.52;68.13
68380;BME280;57711;53.196;19.638;2023-03-24T02:52:49;99266.33;;;9.49;68.42
68380;BME280;57711;53.196;19.638;2023-03-24T02:55:22;99261.84;;;9.48;68.20
68380;BME280;57711;53.196;19.638;2023-03-24T02:58:05;99264.47;;;9.49;68.37
68380;BME280;57711;53.196;19.638;2023-03-24T03:00:56;99260.54;;;9.51;68.28
68380;BME280;57711;53.196;19.638;2023-03-24T03:04:16;99262.06;;;9.51;68.38
68380;BME280;57711;53.196;19.638;2023-03-24T03:06:49;99261.90;;;9.55;68.55
68380;BME280;57711;53.196;19.638;2023-03-24T03:09:20;99260.59;;;9.57;68.34
68380;BME280;57711;53.196;19.638;2023-03-24T03:11:52;99263.58;;;9.58;68.51
68380;BME280;57711;53.196;19.638;2023-03-24T03:14:29;99265.98;;;9.55;68.30
68380;BME280;57711;53.196;19.638;2023-03-24T03:19:48;99267.00;;;9.49;68.45
68380;BME280;57711;53.196;19.638;2023-03-24T03:22:24;99266.77;;;9.48;68.33
68380;BME280;57711;53.196;19.638;2023-03-24T03:24:56;99269.33;;;9.47;68.46
68380;BME280;57711;53.196;19.638;2023-03-24T03:27:33;99269.66;;;9.46;68.27
68380;BME280;57711;53.196;19.638;2023-03-24T03:30:10;99267.53;;;9.43;68.47
68380;BME280;57711;53.196;19.638;2023-03-24T03:32:45;99272.68;;;9.41;68.39
68380;BME280;57711;53.196;19.638;2023-03-24T03:35:28;99270.21;;;9.36;68.45
68380;BME280;57711;53.196;19.638;2023-03-24T03:37:57;99277.13;;;9.32;68.24
68380;BME280;57711;53.196;19.638;2023-03-24T03:40:37;99272.73;;;9.29;68.39
68380;BME280;57711;53.196;19.638;2023-03-24T03:43:13;99270.10;;;9.29;68.45
68380;BME280;57711;53.196;19.638;2023-03-24T03:45:40;99268.06;;;9.27;68.52
68380;BME280;57711;53.196;19.638;2023-03-24T03:48:09;99268.39;;;9.26;68.48
68380;BME280;57711;53.196;19.638;2023-03-24T03:50:37;99264.88;;;9.25;68.47
68380;BME280;57711;53.196;19.638;2023-03-24T03:53:06;99264.35;;;9.23;68.39
68380;BME280;57711;53.196;19.638;2023-03-24T03:55:35;99260.88;;;9.18;68.50
68380;BME280;57711;53.196;19.638;2023-03-24T03:58:03;99255.35;;;9.17;68.55
68380;BME280;57711;53.196;19.638;2023-03-24T04:00:40;99260.73;;;9.20;68.38
68380;BME280;57711;53.196;19.638;2023-03-24T04:20:47;99243.90;;;9.07;68.81
68380;BME280;57711;53.196;19.638;2023-03-24T04:28:45;99232.18;;;9.11;68.68
68380;BME280;57711;53.196;19.638;2023-03-24T04:31:20;99226.97;;;9.11;68.71
68380;BME280;57711;53.196;19.638;2023-03-24T04:34:10;99227.04;;;9.12;68.75
68380;BME280;57711;53.196;19.638;2023-03-24T04:36:55;99225.36;;;9.13;68.76
68380;BME280;57711;53.196;19.638;2023-03-24T04:39:40;99225.76;;;9.12;68.80
68380;BME280;57711;53.196;19.638;2023-03-24T04:42:20;99220.96;;;9.10;68.70
68380;BME280;57711;53.196;19.638;2023-03-24T04:44:49;99222.92;;;9.10;68.71
68380;BME280;57711;53.196;19.638;2023-03-24T04:47:54;99217.91;;;9.09;68.89
68380;BME280;57711;53.196;19.638;2023-03-24T04:51:02;99212.79;;;9.10;68.86
68380;BME280;57711;53.196;19.638;2023-03-24T04:53:44;99208.19;;;9.13;68.69
68380;BME280;57711;53.196;19.638;2023-03-24T04:59:02;99196.93;;;9.17;68.95
68380;BME280;57711;53.196;19.638;2023-03-24T05:01:30;99197.84;;;9.17;68.98
68380;BME280;57711;53.196;19.638;2023-03-24T05:04:20;99190.93;;;9.19;69.07
68380;BME280;57711;53.196;19.638;2023-03-24T05:06:48;99192.42;;;9.22;69.03
68380;BME280;57711;53.196;19.638;2023-03-24T05:09:22;99190.79;;;9.26;68.98
68380;BME280;57711;53.196;19.638;2023-03-24T05:11:50;99191.91;;;9.30;68.92
68380;BME280;57711;53.196;19.638;2023-03-24T05:14:18;99190.39;;;9.34;68.94
68380;BME280;57711;53.196;19.638;2023-03-24T05:16:46;99188.42;;;9.37;68.87
68380;BME280;57711;53.196;19.638;2023-03-24T05:19:15;99184.55;;;9.38;69.01
68380;BME280;57711;53.196;19.638;2023-03-24T05:21:43;99186.15;;;9.40;69.03
68380;BME280;57711;53.196;19.638;2023-03-24T05:24:11;99181.75;;;9.40;68.95
68380;BME280;57711;53.196;19.638;2023-03-24T05:26:38;99182.08;;;9.43;69.02
68380;BME280;57711;53.196;19.638;2023-03-24T05:29:10;99175.29;;;9.44;69.17
68380;BME280;57711;53.196;19.638;2023-03-24T05:31:38;99180.25;;;9.47;69.12
68380;BME280;57711;53.196;19.638;2023-03-24T05:34:09;99184.76;;;9.48;69.18
68380;BME280;57711;53.196;19.638;2023-03-24T05:36:46;99182.57;;;9.49;69.06
68380;BME280;57711;53.196;19.638;2023-03-24T05:39:15;99180.20;;;9.49;68.96
68380;BME280;57711;53.196;19.638;2023-03-24T05:41:49;99179.94;;;9.52;69.08
68380;BME280;57711;53.196;19.638;2023-03-24T05:44:16;99175.30;;;9.55;69.02
68380;BME280;57711;53.196;19.638;2023-03-24T05:46:52;99176.66;;;9.55;69.10
68380;BME280;57711;53.196;19.638;2023-03-24T05:49:19;99172.10;;;9.56;69.24
68380;BME280;57711;53.196;19.638;2023-03-24T05:51:47;99167.75;;;9.58;69.37
68380;BME280;57711;53.196;19.638;2023-03-24T05:54:14;99160.05;;;9.59;69.26
68380;BME280;57711;53.196;19.638;2023-03-24T05:56:42;99157.96;;;9.62;69.34
68380;BME280;57711;53.196;19.638;2023-03-24T05:59:36;99153.34;;;9.63;69.19
68380;BME280;57711;53.196;19.638;2023-03-24T06:02:17;99142.09;;;9.65;69.31
68380;BME280;57711;53.196;19.638;2023-03-24T06:04:51;99137.36;;;9.67;69.18
68380;BME280;57711;53.196;19.638;2023-03-24T06:07:20;99135.59;;;9.70;69.13
68380;BME280;57711;53.196;19.638;2023-03-24T06:09:52;99129.47;;;9.75;69.18
68380;BME280;57711;53.196;19.638;2023-03-24T06:12:24;99126.99;;;9.76;69.14
68380;BME280;57711;53.196;19.638;2023-03-24T06:14:57;99124.59;;;9.77;69.40
68380;BME280;57711;53.196;19.638;2023-03-24T06:17:24;99125.45;;;9.79;69.51
68380;BME280;57711;53.196;19.638;2023-03-24T06:19:55;99119.44;;;9.80;69.43
68380;BME280;57711;53.196;19.638;2023-03-24T06:22:43;99120.33;;;9.82;69.38
68380;BME280;57711;53.196;19.638;2023-03-24T06:25:15;99120.31;;;9.84;69.29
68380;BME280;57711;53.196;19.638;2023-03-24T06:27:50;99124.55;;;9.87;69.26
68380;BME280;57711;53.196;19.638;2023-03-24T06:30:20;99123.23;;;9.89;69.44
68380;BME280;57711;53.196;19.638;2023-03-24T06:32:47;99126.42;;;9.89;69.18
68380;BME280;57711;53.196;19.638;2023-03-24T06:35:17;99123.66;;;9.90;69.54
68380;BME280;57711;53.196;19.638;2023-03-24T06:37:52;99123.09;;;9.90;69.29
68380;BME280;57711;53.196;19.638;2023-03-24T06:40:20;99123.96;;;9.90;69.49
68380;BME280;57711;53.196;19.638;2023-03-24T06:42:50;99124.31;;;9.92;69.46
68380;BME280;57711;53.196;19.638;2023-03-24T06:45:17;99123.90;;;9.92;69.44
68380;BME280;57711;53.196;19.638;2023-03-24T06:47:46;99128.52;;;9.93;69.64
68380;BME280;57711;53.196;19.638;2023-03-24T06:50:13;99133.20;;;9.95;69.55
68380;BME280;57711;53.196;19.638;2023-03-24T06:52:40;99122.27;;;9.98;69.40
68380;BME280;57711;53.196;19.638;2023-03-24T06:55:09;99118.02;;;10.02;69.63
68380;BME280;57711;53.196;19.638;2023-03-24T06:57:36;99112.97;;;10.07;69.54
68380;BME280;57711;53.196;19.638;2023-03-24T07:00:24;99108.75;;;10.09;69.46
68380;BME280;57711;53.196;19.638;2023-03-24T07:03:07;99105.98;;;10.12;69.67
68380;BME280;57711;53.196;19.638;2023-03-24T07:05:39;99104.58;;;10.15;69.52
68380;BME280;57711;53.196;19.638;2023-03-24T07:08:08;99101.88;;;10.16;69.55
68380;BME280;57711;53.196;19.638;2023-03-24T07:10:58;99098.09;;;10.18;69.75
68380;BME280;57711;53.196;19.638;2023-03-24T07:13:26;99094.24;;;10.20;69.56
68380;BME280;57711;53.196;19.638;2023-03-24T07:16:00;99094.24;;;10.24;69.63
68380;BME280;57711;53.196;19.638;2023-03-24T07:18:27;99090.70;;;10.27;69.51
68380;BME280;57711;53.196;19.638;2023-03-24T07:21:04;99089.67;;;10.29;69.74
68380;BME280;57711;53.196;19.638;2023-03-24T07:23:32;99085.14;;;10.35;69.87
68380;BME280;57711;53.196;19.638;2023-03-24T07:26:08;99081.75;;;10.39;69.78
68380;BME280;57711;53.196;19.638;2023-03-24T07:28:36;99078.21;;;10.46;69.91
68380;BME280;57711;53.196;19.638;2023-03-24T07:31:04;99074.10;;;10.50;69.81
68380;BME280;57711;53.196;19.638;2023-03-24T07:33:33;99064.63;;;10.54;69.94
68380;BME280;57711;53.196;19.638;2023-03-24T07:36:00;99061.45;;;10.57;69.83
68380;BME280;57711;53.196;19.638;2023-03-24T07:38:27;99061.81;;;10.62;69.68
68380;BME280;57711;53.196;19.638;2023-03-24T07:40:59;99056.77;;;10.68;69.86
68380;BME280;57711;53.196;19.638;2023-03-24T07:43:28;99053.47;;;10.77;69.96
68380;BME280;57711;53.196;19.638;2023-03-24T07:46:05;99052.20;;;10.87;70.05
68380;BME280;57711;53.196;19.638;2023-03-24T07:48:36;99050.63;;;10.94;70.05
68380;BME280;57711;53.196;19.638;2023-03-24T07:51:03;99045.34;;;11.00;69.75
68380;BME280;57711;53.196;19.638;2023-03-24T07:53:59;99050.22;;;11.08;70.03
68380;BME280;57711;53.196;19.638;2023-03-24T07:56:31;99042.88;;;11.16;70.13
68380;BME280;57711;53.196;19.638;2023-03-24T07:59:00;99038.17;;;11.26;69.85
68380;BME280;57711;53.196;19.638;2023-03-24T08:01:50;99030.48;;;11.34;70.00
68380;BME280;57711;53.196;19.638;2023-03-24T08:04:44;99027.81;;;11.44;70.00
68380;BME280;57711;53.196;19.638;2023-03-24T08:07:31;99025.89;;;11.55;70.04
68380;BME280;57711;53.196;19.638;2023-03-24T08:09:58;99021.89;;;11.62;70.17
68380;BME280;57711;53.196;19.638;2023-03-24T08:12:25;99016.04;;;11.69;70.06
68380;BME280;57711;53.196;19.638;2023-03-24T08:14:52;99015.14;;;11.76;69.98
68380;BME280;57711;53.196;19.638;2023-03-24T08:17:19;99008.85;;;11.82;69.97
68380;BME280;57711;53.196;19.638;2023-03-24T08:19:47;99007.28;;;11.86;69.83
68380;BME280;57711;53.196;19.638;2023-03-24T08:22:27;99000.75;;;11.89;69.98
68380;BME280;57711;53.196;19.638;2023-03-24T08:24:54;99002.67;;;11.90;69.93
68380;BME280;57711;53.196;19.638;2023-03-24T08:27:21;98999.88;;;11.91;69.95
68380;BME280;57711;53.196;19.638;2023-03-24T08:29:49;99001.06;;;11.92;69.79
68380;BME280;57711;53.196;19.638;2023-03-24T08:32:16;98996.87;;;11.92;69.90
68380;BME280;57711;53.196;19.638;2023-03-24T08:34:43;99001.84;;;11.89;69.79
68380;BME280;57711;53.196;19.638;2023-03-24T08:37:10;99005.04;;;11.86;69.73
68380;BME280;57711;53.196;19.638;2023-03-24T08:39:38;98999.83;;;11.85;69.83
68380;BME280;57711;53.196;19.638;2023-03-24T08:42:05;99001.67;;;11.84;69.84
68380;BME280;57711;53.196;19.638;2023-03-24T08:44:32;99003.66;;;11.83;69.70
68380;BME280;57711;53.196;19.638;2023-03-24T08:47:00;98999.96;;;11.82;69.71
68380;BME280;57711;53.196;19.638;2023-03-24T08:49:27;98997.55;;;11.81;69.82
68380;BME280;57711;53.196;19.638;2023-03-24T08:51:54;98998.77;;;11.78;69.75
68380;BME280;57711;53.196;19.638;2023-03-24T08:54:21;98997.68;;;11.75;69.79
68380;BME280;57711;53.196;19.638;2023-03-24T08:56:50;98991.65;;;11.72;69.77
68380;BME280;57711;53.196;19.638;2023-03-24T08:59:18;98991.48;;;11.69;69.69
68380;BME280;57711;53.196;19.638;2023-03-24T09:01:45;98987.42;;;11.66;69.82
68380;BME280;57711;53.196;19.638;2023-03-24T09:04:12;98982.76;;;11.63;69.81
68380;BME280;57711;53.196;19.638;2023-03-24T09:06:39;98982.05;;;11.61;70.06
68380;BME280;57711;53.196;19.638;2023-03-24T09:09:07;98979.69;;;11.58;69.88
68380;BME280;57711;53.196;19.638;2023-03-24T09:11:34;98973.58;;;11.56;69.94
68380;BME280;57711;53.196;19.638;2023-03-24T09:14:04;98964.55;;;11.56;69.99
68380;BME280;57711;53.196;19.638;2023-03-24T09:16:31;98964.78;;;11.57;70.13
68380;BME280;57711;53.196;19.638;2023-03-24T09:18:59;98959.66;;;11.58;70.01
68380;BME280;57711;53.196;19.638;2023-03-24T09:21:26;98963.19;;;11.60;70.03
68380;BME280;57711;53.196;19.638;2023-03-24T09:23:53;98958.88;;;11.60;69.93
68380;BME280;57711;53.196;19.638;2023-03-24T09:26:20;98955.21;;;11.58;70.02
68380;BME280;57711;53.196;19.638;2023-03-24T09:28:49;98958.53;;;11.58;70.33
68380;BME280;57711;53.196;19.638;2023-03-24T09:31:16;98957.86;;;11.57;70.23
68380;BME280;57711;53.196;19.638;2023-03-24T09:33:43;98954.84;;;11.58;70.12
68380;BME280;57711;53.196;19.638;2023-03-24T09:36:11;98954.59;;;11.61;70.17
68380;BME280;57711;53.196;19.638;2023-03-24T09:38:38;98943.20;;;11.64;70.29
68380;BME280;57711;53.196;19.638;2023-03-24T09:41:17;98934.61;;;11.66;70.30
68380;BME280;57711;53.196;19.638;2023-03-24T09:43:50;98926.83;;;11.67;70.30
68380;BME280;57711;53.196;19.638;2023-03-24T09:46:47;98917.52;;;11.70;70.21
68380;BME280;57711;53.196;19.638;2023-03-24T09:49:26;98899.40;;;11.73;70.41
68380;BME280;57711;53.196;19.638;2023-03-24T09:51:59;98888.92;;;11.78;70.31
68380;BME280;57711;53.196;19.638;2023-03-24T09:54:50;98891.66;;;11.83;70.55
68380;BME280;57711;53.196;19.638;2023-03-24T09:57:23;98891.95;;;11.90;70.45
68380;BME280;57711;53.196;19.638;2023-03-24T09:59:52;98890.81;;;11.99;70.48
68380;BME280;57711;53.196;19.638;2023-03-24T10:02:20;98891.89;;;12.06;70.45
68380;BME280;57711;53.196;19.638;2023-03-24T10:04:48;98878.27;;;12.14;70.29
68380;BME280;57711;53.196;19.638;2023-03-24T10:07:37;98878.07;;;12.21;70.34
68380;BME280;57711;53.196;19.638;2023-03-24T10:10:17;98872.77;;;12.30;70.45
68380;BME280;57711;53.196;19.638;2023-03-24T10:12:48;98865.63;;;12.45;70.62
68380;BME280;57711;53.196;19.638;2023-03-24T10:15:23;98860.58;;;12.61;70.57
68380;BME280;57711;53.196;19.638;2023-03-24T10:20:59;98856.23;;;13.02;70.67
68380;BME280;57711;53.196;19.638;2023-03-24T10:23:35;98855.65;;;13.21;70.61
68380;BME280;57711;53.196;19.638;2023-03-24T10:26:31;98861.29;;;13.38;70.47
68380;BME280;57711;53.196;19.638;2023-03-24T10:29:11;98849.65;;;13.55;70.59
68380;BME280;57711;53.196;19.638;2023-03-24T10:31:46;98857.05;;;13.71;70.46
68380;BME280;57711;53.196;19.638;2023-03-24T10:34:16;98863.04;;;13.82;70.48
68380;BME280;57711;53.196;19.638;2023-03-24T10:36:44;98861.40;;;13.90;70.33
68380;BME280;57711;53.196;19.638;2023-03-24T10:39:15;98867.12;;;13.90;70.10
68380;BME280;57711;53.196;19.638;2023-03-24T10:41:50;98859.94;;;13.94;70.36
68380;BME280;57711;53.196;19.638;2023-03-24T10:44:19;98863.09;;;14.02;70.36
68380;BME280;57711;53.196;19.638;2023-03-24T10:46:50;98861.42;;;14.07;70.26
68380;BME280;57711;53.196;19.638;2023-03-24T10:49:20;98853.42;;;14.13;70.18
68380;BME280;57711;53.196;19.638;2023-03-24T10:51:50;98855.30;;;14.18;70.23
68380;BME280;57711;53.196;19.638;2023-03-24T10:54:22;98848.92;;;14.25;70.22
68380;BME280;57711;53.196;19.638;2023-03-24T10:57:01;98841.96;;;14.30;70.32
68380;BME280;57711;53.196;19.638;2023-03-24T10:59:45;98843.10;;;14.30;70.14
68380;BME280;57711;53.196;19.638;2023-03-24T11:07:38;98838.65;;;14.30;69.95
68380;BME280;57711;53.196;19.638;2023-03-24T11:13:01;98826.91;;;14.29;69.95
68380;BME280;57711;53.196;19.638;2023-03-24T11:15:32;98826.37;;;14.32;69.92
68380;BME280;57711;53.196;19.638;2023-03-24T11:20:39;98824.14;;;14.36;69.96
68380;BME280;57711;53.196;19.638;2023-03-24T11:23:19;98818.55;;;14.38;69.97
68380;BME280;57711;53.196;19.638;2023-03-24T11:26:06;98814.14;;;14.40;69.98
68380;BME280;57711;53.196;19.638;2023-03-24T11:28:40;98802.00;;;14.42;69.93
68380;BME280;57711;53.196;19.638;2023-03-24T11:31:10;98803.32;;;14.51;70.10
68380;BME280;57711;53.196;19.638;2023-03-24T11:33:59;98799.30;;;14.68;70.21
68380;BME280;57711;53.196;19.638;2023-03-24T11:39:06;98793.94;;;15.13;70.04
68380;BME280;57711;53.196;19.638;2023-03-24T11:41:38;98791.60;;;15.35;70.03
68380;BME280;57711;53.196;19.638;2023-03-24T11:44:15;98785.88;;;15.56;70.04
68380;BME280;57711;53.196;19.638;2023-03-24T11:46:45;98785.40;;;15.69;69.72
68380;BME280;57711;53.196;19.638;2023-03-24T11:49:17;98780.36;;;15.67;69.46
68380;BME280;57711;53.196;19.638;2023-03-24T11:51:47;98770.33;;;15.59;69.31
68380;BME280;57711;53.196;19.638;2023-03-24T11:54:18;98770.27;;;15.49;69.27
68380;BME280;57711;53.196;19.638;2023-03-24T11:56:52;98765.05;;;15.41;69.37
68380;BME280;57711;53.196;19.638;2023-03-24T11:59:33;98766.39;;;15.37;69.47
68380;BME280;57711;53.196;19.638;2023-03-24T12:13:32;98769.89;;;15.17;69.34
68380;BME280;57711;53.196;19.638;2023-03-24T12:19:13;98761.34;;;15.15;69.33
68380;BME280;57711;53.196;19.638;2023-03-24T12:21:57;98757.31;;;15.12;69.17
68380;BME280;57711;53.196;19.638;2023-03-24T12:27:44;98742.52;;;15.15;69.21
68380;BME280;57711;53.196;19.638;2023-03-24T12:30:30;98737.33;;;15.20;69.25
68380;BME280;57711;53.196;19.638;2023-03-24T12:41:14;98714.17;;;15.40;69.15
68380;BME280;57711;53.196;19.638;2023-03-24T12:55:04;98714.52;;;15.57;68.87
68380;BME280;57711;53.196;19.638;2023-03-24T12:57:39;98713.69;;;15.52;68.89
68380;BME280;57711;53.196;19.638;2023-03-24T13:00:18;98710.64;;;15.48;68.94
68380;BME280;57711;53.196;19.638;2023-03-24T13:02:52;98713.09;;;15.46;68.79
68380;BME280;57711;53.196;19.638;2023-03-24T13:05:27;98708.16;;;15.45;68.73
68380;BME280;57711;53.196;19.638;2023-03-24T13:08:01;98709.63;;;15.43;68.73
68380;BME280;57711;53.196;19.638;2023-03-24T13:10:35;98704.44;;;15.40;68.54
68380;BME280;57711;53.196;19.638;2023-03-24T13:13:15;98701.49;;;15.36;68.63
68380;BME280;57711;53.196;19.638;2023-03-24T13:15:45;98700.73;;;15.32;68.46
68380;BME280;57711;53.196;19.638;2023-03-24T13:18:31;98694.14;;;15.28;68.43
68380;BME280;57711;53.196;19.638;2023-03-24T13:21:10;98688.16;;;15.25;68.44
68380;BME280;57711;53.196;19.638;2023-03-24T13:23:59;98690.30;;;15.23;68.54
68380;BME280;57711;53.196;19.638;2023-03-24T13:32:35;98687.77;;;15.12;68.49
68380;BME280;57711;53.196;19.638;2023-03-24T13:37:47;98690.16;;;15.06;68.36
68380;BME280;57711;53.196;19.638;2023-03-24T13:40:24;98687.70;;;15.03;68.41
68380;BME280;57711;53.196;19.638;2023-03-24T13:45:45;98687.01;;;14.96;68.28
68380;BME280;57711;53.196;19.638;2023-03-24T13:48:37;98690.27;;;14.90;68.29
68380;BME280;57711;53.196;19.638;2023-03-24T13:51:21;98685.74;;;14.86;68.35
68380;BME280;57711;53.196;19.638;2023-03-24T13:53:55;98691.44;;;14.83;68.32
68380;BME280;57711;53.196;19.638;2023-03-24T13:57:10;98690.46;;;14.79;68.21
68380;BME280;57711;53.196;19.638;2023-03-24T14:02:45;98692.22;;;14.70;68.25
68380;BME280;57711;53.196;19.638;2023-03-24T14:07:52;98699.76;;;14.64;68.23
68380;BME280;57711;53.196;19.638;2023-03-24T14:10:48;98708.34;;;14.61;68.27
68380;BME280;57711;53.196;19.638;2023-03-24T14:15:55;98711.84;;;14.54;68.25
68380;BME280;57711;53.196;19.638;2023-03-24T14:26:15;98696.45;;;14.42;68.09
68380;BME280;57711;53.196;19.638;2023-03-24T14:28:57;98699.16;;;14.41;68.13
68380;BME280;57711;53.196;19.638;2023-03-24T14:31:28;98696.93;;;14.40;68.16
68380;BME280;57711;53.196;19.638;2023-03-24T14:33:58;98694.13;;;14.40;68.18
68380;BME280;57711;53.196;19.638;2023-03-24T14:36:31;98692.39;;;14.42;68.27
68380;BME280;57711;53.196;19.638;2023-03-24T14:41:44;98683.73;;;14.50;68.11
68380;BME280;57711;53.196;19.638;2023-03-24T14:44:13;98686.30;;;14.52;68.12
68380;BME280;57711;53.196;19.638;2023-03-24T14:46:46;98686.95;;;14.54;68.14
68380;BME280;57711;53.196;19.638;2023-03-24T14:49:36;98683.45;;;14.58;68.18
68380;BME280;57711;53.196;19.638;2023-03-24T14:52:15;98669.57;;;14.63;68.04
68380;BME280;57711;53.196;19.638;2023-03-24T14:54:48;98664.77;;;14.67;68.10
68380;BME280;57711;53.196;19.638;2023-03-24T15:00:07;98668.81;;;14.71;68.12
68380;BME280;57711;53.196;19.638;2023-03-24T15:02:45;98667.89;;;14.72;68.04
68380;BME280;57711;53.196;19.638;2023-03-24T15:05:22;98666.77;;;14.72;67.96
68380;BME280;57711;53.196;19.638;2023-03-24T15:10:25;98669.66;;;14.73;67.89
68380;BME280;57711;53.196;19.638;2023-03-24T15:12:53;98662.25;;;14.69;67.83
68380;BME280;57711;53.196;19.638;2023-03-24T15:15:21;98659.47;;;14.70;67.94
68380;BME280;57711;53.196;19.638;2023-03-24T15:17:50;98657.71;;;14.68;67.87
68380;BME280;57711;53.196;19.638;2023-03-24T15:20:26;98665.21;;;14.66;67.89
68380;BME280;57711;53.196;19.638;2023-03-24T15:22:54;98661.69;;;14.64;67.88
68380;BME280;57711;53.196;19.638;2023-03-24T15:25:25;98661.52;;;14.63;67.76
68380;BME280;57711;53.196;19.638;2023-03-24T15:27:56;98657.86;;;14.63;67.84
68380;BME280;57711;53.196;19.638;2023-03-24T15:30:24;98659.27;;;14.62;67.84
68380;BME280;57711;53.196;19.638;2023-03-24T15:32:51;98654.57;;;14.60;67.89
68380;BME280;57711;53.196;19.638;2023-03-24T15:35:21;98650.08;;;14.58;68.02
68380;BME280;57711;53.196;19.638;2023-03-24T15:37:54;98653.00;;;14.55;67.83
68380;BME280;57711;53.196;19.638;2023-03-24T15:42:54;98652.31;;;14.51;67.86
68380;BME280;57711;53.196;19.638;2023-03-24T15:45:27;98649.98;;;14.50;67.93
68380;BME280;57711;53.196;19.638;2023-03-24T15:47:55;98652.01;;;14.49;67.85